createdAt,value
2019-03-22T00:01:33.372Z,9.20
2019-03-22T00:04:00.283Z,9.21
2019-03-22T00:06:27.511Z,9.31
2019-03-22T00:08:54.347Z,9.05
2019-03-22T00:11:21.176Z,9.14
2019-03-22T00:13:48.343Z,9.18
2019-03-22T00:16:15.076Z,9.16
2019-03-22T00:18:42.029Z,9.11
2019-03-22T00:21:08.981Z,9.14
2019-03-22T00:23:35.861Z,9.09
2019-03-22T00:26:05.663Z,9.11
2019-03-22T00:28:32.627Z,9.27
2019-03-22T00:30:59.507Z,9.33
2019-03-22T00:33:26.551Z,9.31
2019-03-22T00:35:54.046Z,9.22
2019-03-22T00:38:20.993Z,9.30
2019-03-22T00:40:47.881Z,9.31
2019-03-22T00:43:14.779Z,9.31
2019-03-22T00:45:41.701Z,9.12
2019-03-22T00:48:08.586Z,9.29
2019-03-22T00:50:35.797Z,9.13
2019-03-22T00:53:02.800Z,9.28
2019-03-22T00:55:30.042Z,9.34
2019-03-22T00:57:56.908Z,9.29
2019-03-22T01:00:23.826Z,9.11
2019-03-22T01:02:51.193Z,8.98
2019-03-22T01:05:18.057Z,9.20
2019-03-22T01:07:44.809Z,9.26
2019-03-22T01:10:12.525Z,9.26
2019-03-22T01:12:39.479Z,9.27
2019-03-22T01:15:10.956Z,9.27
2019-03-22T01:17:37.767Z,9.26
2019-03-22T01:20:06.655Z,9.16
2019-03-22T01:22:33.513Z,9.08
2019-03-22T01:25:00.529Z,9.14
2019-03-22T01:27:27.533Z,9.25
2019-03-22T01:29:54.551Z,9.31
2019-03-22T01:32:21.526Z,9.16
2019-03-22T01:34:48.473Z,9.22
2019-03-22T01:37:15.478Z,9.29
2019-03-22T01:39:42.325Z,9.03
2019-03-22T01:42:09.353Z,9.04
2019-03-22T01:44:36.230Z,9.00
2019-03-22T01:47:03.181Z,8.95
2019-03-22T01:49:30.103Z,9.01
2019-03-22T01:51:56.957Z,9.06
2019-03-22T01:54:23.838Z,9.02
2019-03-22T01:56:50.855Z,9.02
2019-03-22T01:59:17.829Z,9.06
2019-03-22T02:01:44.877Z,9.13
2019-03-22T02:04:11.816Z,8.97
2019-03-22T02:06:38.722Z,9.03
2019-03-22T02:09:06.611Z,9.03
2019-03-22T02:11:33.553Z,9.08
2019-03-22T02:14:00.770Z,9.00
2019-03-22T02:16:27.685Z,9.03
2019-03-22T02:18:54.517Z,9.07
2019-03-22T02:21:21.451Z,8.92
2019-03-22T02:23:48.171Z,9.06
2019-03-22T02:26:15.043Z,9.02
2019-03-22T02:28:41.822Z,9.07
2019-03-22T02:31:08.693Z,8.96
2019-03-22T02:33:35.560Z,8.96
2019-03-22T02:36:02.446Z,9.03
2019-03-22T02:38:29.412Z,8.89
2019-03-22T02:40:56.251Z,8.98
2019-03-22T02:43:22.992Z,8.97
2019-03-22T02:45:49.933Z,9.09
2019-03-22T02:48:16.937Z,9.07
2019-03-22T02:50:43.749Z,9.03
2019-03-22T02:53:10.502Z,9.18
2019-03-22T02:55:37.481Z,9.15
2019-03-22T02:58:19.358Z,9.11
2019-03-22T03:00:33.304Z,9.20
2019-03-22T03:03:00.204Z,9.21
2019-03-22T03:05:27.463Z,9.15
2019-03-22T03:07:54.448Z,9.15
2019-03-22T03:10:21.217Z,9.15
2019-03-22T03:12:48.466Z,9.10
2019-03-22T03:15:16.578Z,9.14
2019-03-22T03:17:43.396Z,9.19
2019-03-22T03:20:15.957Z,9.16
2019-03-22T03:22:42.744Z,9.13
2019-03-22T03:25:09.741Z,9.11
2019-03-22T03:27:36.907Z,9.15
2019-03-22T03:30:10.178Z,9.13
2019-03-22T03:32:37.109Z,9.16
2019-03-22T03:35:04.816Z,9.25
2019-03-22T03:37:31.643Z,9.29
2019-03-22T03:39:58.485Z,9.34
2019-03-22T03:42:25.670Z,9.31
2019-03-22T03:44:52.636Z,9.28
2019-03-22T03:47:19.826Z,9.27
2019-03-22T03:49:46.785Z,9.19
2019-03-22T03:52:13.714Z,9.26
2019-03-22T03:54:40.914Z,9.24
2019-03-22T03:57:07.912Z,9.04
2019-03-22T03:59:35.256Z,8.99
2019-03-22T04:02:02.113Z,8.82
2019-03-22T04:04:28.942Z,8.69
2019-03-22T04:06:55.837Z,8.68
2019-03-22T04:09:23.033Z,8.70
2019-03-22T04:11:49.883Z,8.62
2019-03-22T04:14:17.146Z,8.61
2019-03-22T04:16:44.319Z,8.70
2019-03-22T04:19:11.072Z,8.58
2019-03-22T04:21:38.030Z,8.55
2019-03-22T04:24:05.021Z,8.51
2019-03-22T04:26:31.945Z,8.47
2019-03-22T04:29:07.107Z,8.68
2019-03-22T04:31:28.049Z,8.56
2019-03-22T04:33:54.959Z,8.51
2019-03-22T04:36:21.898Z,8.51
2019-03-22T04:38:48.974Z,8.52
2019-03-22T04:41:16.024Z,8.52
2019-03-22T04:43:42.928Z,8.55
2019-03-22T04:46:09.948Z,8.50
2019-03-22T04:48:36.883Z,8.59
2019-03-22T04:51:03.969Z,8.58
2019-03-22T04:53:33.945Z,8.57
2019-03-22T04:56:00.841Z,8.66
2019-03-22T04:58:28.108Z,8.62
2019-03-22T05:00:55.105Z,8.63
2019-03-22T05:03:22.070Z,8.76
2019-03-22T05:05:48.956Z,8.74
2019-03-22T05:08:16.341Z,8.80
2019-03-22T05:10:43.576Z,8.76
2019-03-22T05:13:10.521Z,8.79
2019-03-22T05:15:37.340Z,8.81
2019-03-22T05:18:04.697Z,8.92
2019-03-22T05:20:32.910Z,8.84
2019-03-22T05:22:59.743Z,8.86
2019-03-22T05:25:26.634Z,8.81
2019-03-22T05:27:53.543Z,8.79
2019-03-22T05:30:50.161Z,8.84
2019-03-22T05:33:17.964Z,9.05
2019-03-22T05:35:44.960Z,9.14
2019-03-22T05:38:12.038Z,9.10
2019-03-22T05:40:38.973Z,9.14
2019-03-22T05:43:05.990Z,9.22
2019-03-22T05:45:32.965Z,9.16
2019-03-22T05:47:59.921Z,9.09
2019-03-22T05:50:27.796Z,8.99
2019-03-22T05:52:54.825Z,9.04
2019-03-22T05:55:21.876Z,9.31
2019-03-22T05:57:48.683Z,9.40
2019-03-22T06:00:16.855Z,9.19
2019-03-22T06:02:43.776Z,9.19
2019-03-22T06:05:10.830Z,9.41
2019-03-22T06:07:37.817Z,9.34
2019-03-22T06:10:04.820Z,9.41
2019-03-22T06:12:32.315Z,9.41
2019-03-22T06:14:59.173Z,9.59
2019-03-22T06:17:25.983Z,9.57
2019-03-22T06:19:53.069Z,9.64
2019-03-22T06:22:20.127Z,9.56
2019-03-22T06:24:47.312Z,9.75
2019-03-22T06:27:14.169Z,9.81
2019-03-22T06:29:41.030Z,9.92
2019-03-22T06:32:07.979Z,10.05
2019-03-22T06:34:34.902Z,10.04
2019-03-22T06:37:01.771Z,9.87
2019-03-22T06:39:28.801Z,9.95
2019-03-22T06:41:55.636Z,10.12
2019-03-22T06:44:22.587Z,10.15
2019-03-22T06:46:49.468Z,10.14
2019-03-22T06:49:16.269Z,9.93
2019-03-22T06:51:43.224Z,10.24
2019-03-22T06:54:10.237Z,10.30
2019-03-22T06:56:37.234Z,10.11
2019-03-22T06:59:04.074Z,10.32
2019-03-22T07:01:30.942Z,10.40
2019-03-22T07:03:57.893Z,10.33
2019-03-22T07:06:25.114Z,10.42
2019-03-22T07:08:51.998Z,10.35
2019-03-22T07:11:19.605Z,10.52
2019-03-22T07:13:46.481Z,10.65
2019-03-22T07:16:13.896Z,10.63
2019-03-22T07:18:40.935Z,10.57
2019-03-22T07:21:07.795Z,10.43
2019-03-22T07:23:34.829Z,10.48
2019-03-22T07:26:01.685Z,10.53
2019-03-22T07:28:28.679Z,10.61
2019-03-22T07:30:55.631Z,10.55
2019-03-22T07:33:22.528Z,10.49
2019-03-22T07:35:49.559Z,10.53
2019-03-22T07:38:16.704Z,10.58
2019-03-22T07:40:43.934Z,10.65
2019-03-22T07:43:11.039Z,10.85
2019-03-22T07:45:37.988Z,10.77
2019-03-22T07:48:04.889Z,10.67
2019-03-22T07:50:31.938Z,10.71
2019-03-22T07:52:58.795Z,10.65
2019-03-22T07:55:26.089Z,10.88
2019-03-22T07:57:53.208Z,10.95
2019-03-22T08:00:30.284Z,10.92
2019-03-22T08:02:49.245Z,10.78
2019-03-22T08:05:16.214Z,10.70
2019-03-22T08:07:43.467Z,10.83
2019-03-22T08:10:10.406Z,10.80
2019-03-22T08:12:37.501Z,10.99
2019-03-22T08:15:08.249Z,10.89
2019-03-22T08:17:34.618Z,10.74
2019-03-22T08:20:02.331Z,10.74
2019-03-22T08:22:29.274Z,10.70
2019-03-22T08:24:56.244Z,10.76
2019-03-22T08:27:23.177Z,10.82
2019-03-22T08:29:50.299Z,10.87
2019-03-22T08:32:17.121Z,11.02
2019-03-22T08:34:44.098Z,11.06
2019-03-22T08:37:12.448Z,11.15
2019-03-22T08:39:39.363Z,11.08
2019-03-22T08:42:06.246Z,10.98
2019-03-22T08:44:33.252Z,11.01
2019-03-22T08:47:00.247Z,11.00
2019-03-22T08:49:28.332Z,11.03
2019-03-22T08:51:55.484Z,11.16
2019-03-22T08:54:22.418Z,11.13
2019-03-22T08:56:49.545Z,11.17
2019-03-22T08:59:16.621Z,11.22
2019-03-22T09:01:43.429Z,11.19
2019-03-22T09:04:10.303Z,11.25
2019-03-22T09:06:37.407Z,11.27
2019-03-22T09:09:06.093Z,11.25
2019-03-22T09:11:33.079Z,11.41
2019-03-22T09:14:00.320Z,11.51
2019-03-22T09:16:27.245Z,11.43
2019-03-22T09:18:54.175Z,11.39
2019-03-22T09:21:21.189Z,11.82
2019-03-22T09:23:48.017Z,12.03
2019-03-22T09:26:14.937Z,12.05
2019-03-22T09:28:42.133Z,12.08
2019-03-22T09:31:10.782Z,12.45
2019-03-22T09:33:38.088Z,12.45
2019-03-22T09:36:05.022Z,12.73
2019-03-22T09:38:31.909Z,12.67
2019-03-22T09:40:58.875Z,13.01
2019-03-22T09:43:25.777Z,12.81
2019-03-22T09:45:52.859Z,13.49
2019-03-22T09:48:20.039Z,13.45
2019-03-22T09:50:47.051Z,13.47
2019-03-22T09:53:14.192Z,13.77
2019-03-22T09:55:41.237Z,13.79
2019-03-22T09:58:08.136Z,14.26
2019-03-22T10:00:35.029Z,13.77
2019-03-22T10:03:02.599Z,13.34
2019-03-22T10:05:29.642Z,13.99
2019-03-22T10:07:56.735Z,13.82
2019-03-22T10:10:23.673Z,13.20
2019-03-22T10:12:50.852Z,12.56
2019-03-22T10:15:18.611Z,12.93
2019-03-22T10:17:45.587Z,13.02
2019-03-22T10:20:12.473Z,12.43
2019-03-22T10:22:39.936Z,12.86
2019-03-22T10:25:07.076Z,12.78
2019-03-22T10:27:34.724Z,12.55
2019-03-22T10:30:03.377Z,12.68
2019-03-22T10:32:30.364Z,13.11
2019-03-22T10:34:57.391Z,13.18
2019-03-22T10:37:24.244Z,12.54
2019-03-22T10:39:51.122Z,13.14
2019-03-22T10:42:18.293Z,12.45
2019-03-22T10:44:45.309Z,12.43
2019-03-22T10:47:12.212Z,12.54
2019-03-22T10:49:41.788Z,12.42
2019-03-22T10:52:08.069Z,12.36
2019-03-22T10:54:35.097Z,12.90
2019-03-22T10:57:02.261Z,13.02
2019-03-22T10:59:29.280Z,12.93
2019-03-22T11:02:03.100Z,14.06
2019-03-22T11:04:25.122Z,13.56
2019-03-22T11:06:51.931Z,14.54
2019-03-22T11:09:18.886Z,14.82
2019-03-22T11:11:45.823Z,15.02
2019-03-22T11:14:12.851Z,14.26
2019-03-22T11:16:41.495Z,13.64
2019-03-22T11:19:08.497Z,13.92
2019-03-22T11:21:35.373Z,14.11
2019-03-22T11:24:02.321Z,14.01
2019-03-22T11:26:29.627Z,13.83
2019-03-22T11:28:56.552Z,13.48
2019-03-22T11:31:28.387Z,13.57
2019-03-22T11:33:52.716Z,13.35
2019-03-22T11:36:19.567Z,13.65
2019-03-22T11:38:46.556Z,13.65
2019-03-22T11:41:13.680Z,13.59
2019-03-22T11:43:40.527Z,13.62
2019-03-22T11:46:07.385Z,13.63
2019-03-22T11:48:34.180Z,13.64
2019-03-22T11:51:01.105Z,13.62
2019-03-22T11:53:28.113Z,13.53
2019-03-22T11:55:54.919Z,13.52
2019-03-22T11:58:23.253Z,13.35
2019-03-22T12:00:50.243Z,13.52
2019-03-22T12:03:17.112Z,13.55
2019-03-22T12:05:43.980Z,13.86
2019-03-22T12:08:10.990Z,13.91
2019-03-22T12:10:37.956Z,13.56
2019-03-22T12:13:04.839Z,13.32
2019-03-22T12:15:31.695Z,13.22
2019-03-22T12:18:00.327Z,13.39
2019-03-22T12:20:27.426Z,13.16
2019-03-22T12:22:54.515Z,13.57
2019-03-22T12:25:23.103Z,13.44
2019-03-22T12:27:50.023Z,13.62
2019-03-22T12:30:17.393Z,13.44
2019-03-22T12:32:44.287Z,13.02
2019-03-22T12:35:12.069Z,12.90
2019-03-22T12:37:38.967Z,13.08
2019-03-22T12:40:09.506Z,13.31
2019-03-22T12:42:36.423Z,13.41
2019-03-22T12:45:12.536Z,13.17
2019-03-22T12:47:39.586Z,12.88
2019-03-22T12:50:06.744Z,12.97
2019-03-22T12:52:33.879Z,13.43
2019-03-22T12:55:00.817Z,13.54
2019-03-22T12:57:27.853Z,13.79
2019-03-22T12:59:54.773Z,13.75
2019-03-22T13:02:21.816Z,13.57
2019-03-22T13:04:48.763Z,13.53
2019-03-22T13:07:16.143Z,13.41
2019-03-22T13:09:43.061Z,13.29
2019-03-22T13:12:10.210Z,13.08
2019-03-22T13:14:37.205Z,13.26
2019-03-22T13:17:04.126Z,13.09
2019-03-22T13:19:31.177Z,13.10
2019-03-22T13:21:58.074Z,12.85
2019-03-22T13:24:24.942Z,12.85
2019-03-22T13:26:51.855Z,13.06
2019-03-22T13:29:18.917Z,12.85
2019-03-22T13:31:45.724Z,12.98
2019-03-22T13:34:12.555Z,13.10
2019-03-22T13:36:39.426Z,12.82
2019-03-22T13:39:06.891Z,12.76
2019-03-22T13:41:33.855Z,12.63
2019-03-22T13:44:00.714Z,12.73
2019-03-22T13:46:27.437Z,13.06
2019-03-22T13:48:54.347Z,13.03
2019-03-22T13:51:21.363Z,13.05
2019-03-22T13:53:48.294Z,12.73
2019-03-22T13:56:15.333Z,12.74
2019-03-22T13:58:43.629Z,12.82
2019-03-22T14:01:10.695Z,12.78
2019-03-22T14:03:37.589Z,12.71
2019-03-22T14:06:04.489Z,12.61
2019-03-22T14:08:31.744Z,12.66
2019-03-22T14:10:58.723Z,12.61
2019-03-22T14:13:28.219Z,13.96
2019-03-22T14:15:55.039Z,13.96
2019-03-22T14:18:22.021Z,14.18
2019-03-22T14:20:49.091Z,14.71
2019-03-22T14:23:15.973Z,13.21
2019-03-22T14:25:42.801Z,12.85
2019-03-22T14:28:09.684Z,12.88
2019-03-22T14:30:36.603Z,12.78
2019-03-22T14:33:12.980Z,12.81
2019-03-22T14:35:32.319Z,12.61
2019-03-22T14:37:59.166Z,12.55
2019-03-22T14:40:25.979Z,12.81
2019-03-22T14:42:52.903Z,12.82
2019-03-22T14:45:19.695Z,12.67
2019-03-22T14:47:46.574Z,12.54
2019-03-22T14:50:13.556Z,12.48
2019-03-22T14:52:40.481Z,12.28
2019-03-22T14:55:07.295Z,12.19
2019-03-22T14:57:34.156Z,12.25
2019-03-22T15:00:01.134Z,12.25
2019-03-22T15:02:27.888Z,12.31
2019-03-22T15:04:54.732Z,12.17
2019-03-22T15:07:21.633Z,12.08
2019-03-22T15:09:48.444Z,12.13
2019-03-22T15:12:17.280Z,12.10
2019-03-22T15:14:46.061Z,12.15
2019-03-22T15:17:30.401Z,12.11
2019-03-22T15:20:15.968Z,12.07
2019-03-22T15:23:01.532Z,12.19
2019-03-22T15:25:47.039Z,11.84
2019-03-22T15:28:32.594Z,11.93
2019-03-22T15:31:07.794Z,12.06
2019-03-22T15:33:42.280Z,12.10
2019-03-22T15:36:13.814Z,12.07
2019-03-22T15:38:45.656Z,12.02
2019-03-22T15:41:12.776Z,11.99
2019-03-22T15:43:39.728Z,11.95
2019-03-22T15:46:06.556Z,11.95
2019-03-22T15:48:33.904Z,11.96
2019-03-22T15:51:00.779Z,11.96
2019-03-22T15:53:27.554Z,11.92
2019-03-22T15:55:54.504Z,11.98
2019-03-22T15:58:21.291Z,12.03
2019-03-22T16:00:48.184Z,11.90
2019-03-22T16:03:15.244Z,11.94
2019-03-22T16:05:42.255Z,11.90
2019-03-22T16:08:09.098Z,11.75
2019-03-22T16:10:36.106Z,11.71
2019-03-22T16:13:02.921Z,11.97
2019-03-22T16:15:29.791Z,11.78
2019-03-22T16:17:56.648Z,11.92
2019-03-22T16:20:23.604Z,11.94
2019-03-22T16:22:50.407Z,11.93
2019-03-22T16:25:17.230Z,11.93
2019-03-22T16:27:45.547Z,11.86
2019-03-22T16:30:13.713Z,11.77
2019-03-22T16:32:40.640Z,11.84
2019-03-22T16:35:07.921Z,11.78
2019-03-22T16:37:34.829Z,11.78
2019-03-22T16:40:01.760Z,11.79
2019-03-22T16:42:28.606Z,11.62
2019-03-22T16:44:55.523Z,11.67
2019-03-22T16:47:22.316Z,11.66
2019-03-22T16:49:49.309Z,11.61
2019-03-22T16:52:16.160Z,11.66
2019-03-22T16:54:43.138Z,11.71
2019-03-22T16:57:10.121Z,11.80
2019-03-22T16:59:36.872Z,11.82
2019-03-22T17:02:03.739Z,11.88
2019-03-22T17:04:30.756Z,11.86
2019-03-22T17:06:57.711Z,11.77
2019-03-22T17:09:24.590Z,11.49
2019-03-22T17:11:51.707Z,11.59
2019-03-22T17:14:18.537Z,11.58
2019-03-22T17:16:45.486Z,11.62
2019-03-22T17:19:12.464Z,11.43
2019-03-22T17:21:39.323Z,11.27
2019-03-22T17:24:06.373Z,11.15
2019-03-22T17:26:33.371Z,11.16
2019-03-22T17:29:00.114Z,11.27
2019-03-22T17:31:26.941Z,11.24
2019-03-22T17:33:53.889Z,11.32
2019-03-22T17:36:20.731Z,11.38
2019-03-22T17:38:47.623Z,11.33
2019-03-22T17:41:14.666Z,11.22
2019-03-22T17:43:41.572Z,11.40
2019-03-22T17:46:09.564Z,11.43
2019-03-22T17:48:36.368Z,11.45
2019-03-22T17:51:03.205Z,11.43
2019-03-22T17:53:30.092Z,11.20
2019-03-22T17:55:56.971Z,11.31
2019-03-22T17:58:23.902Z,11.16
2019-03-22T18:00:51.232Z,11.22
2019-03-22T18:03:18.041Z,11.16
2019-03-22T18:05:44.862Z,11.14
2019-03-22T18:08:11.775Z,11.29
2019-03-22T18:10:38.720Z,11.38
2019-03-22T18:13:05.706Z,11.33
2019-03-22T18:15:32.582Z,11.35
2019-03-22T18:17:59.647Z,11.40
2019-03-22T18:20:26.481Z,11.29
2019-03-22T18:22:53.386Z,11.37
2019-03-22T18:25:23.013Z,11.39
2019-03-22T18:27:49.903Z,11.35
2019-03-22T18:30:16.631Z,11.30
2019-03-22T18:32:43.504Z,11.40
2019-03-22T18:35:10.610Z,11.38
2019-03-22T18:37:37.415Z,11.40
2019-03-22T18:40:06.850Z,11.25
2019-03-22T18:42:33.740Z,11.20
2019-03-22T18:45:00.779Z,11.12
2019-03-22T18:47:27.755Z,11.20
2019-03-22T18:49:54.747Z,11.30
2019-03-22T18:52:23.954Z,11.23
2019-03-22T18:54:50.812Z,10.98
2019-03-22T18:57:17.820Z,10.86
2019-03-22T18:59:44.584Z,11.10
2019-03-22T19:02:11.564Z,11.08
2019-03-22T19:04:43.949Z,11.06
2019-03-22T19:07:07.338Z,10.85
2019-03-22T19:09:34.311Z,10.70
2019-03-22T19:12:01.097Z,10.75
2019-03-22T19:14:28.001Z,10.76
2019-03-22T19:16:54.735Z,10.90
2019-03-22T19:19:24.780Z,10.95
2019-03-22T19:21:51.593Z,11.01
2019-03-22T19:24:21.091Z,10.73
2019-03-22T19:26:48.061Z,10.59
2019-03-22T19:29:14.871Z,10.59
2019-03-22T19:31:41.840Z,10.66
2019-03-22T19:34:08.974Z,10.47
2019-03-22T19:36:35.773Z,10.43
2019-03-22T19:39:05.140Z,10.56
2019-03-22T19:41:32.305Z,10.53
2019-03-22T19:43:59.041Z,10.67
2019-03-22T19:46:25.848Z,10.59
2019-03-22T19:48:52.695Z,10.69
2019-03-22T19:51:19.454Z,10.65
2019-03-22T19:53:46.354Z,10.61
2019-03-22T19:56:13.264Z,10.49
2019-03-22T19:58:40.177Z,10.50
2019-03-22T20:01:07.062Z,10.52
2019-03-22T20:03:34.021Z,10.48
2019-03-22T20:06:00.947Z,10.41
2019-03-22T20:08:28.181Z,10.46
2019-03-22T20:10:55.092Z,10.38
2019-03-22T20:13:22.296Z,10.33
2019-03-22T20:15:49.094Z,10.31
2019-03-22T20:18:16.082Z,10.28
2019-03-22T20:20:43.194Z,10.27
2019-03-22T20:23:10.120Z,10.22
2019-03-22T20:25:39.143Z,10.19
2019-03-22T20:28:06.079Z,10.23
2019-03-22T20:30:32.949Z,10.26
2019-03-22T20:33:02.750Z,10.11
2019-03-22T20:35:29.748Z,10.17
2019-03-22T20:37:56.645Z,9.83
2019-03-22T20:40:23.457Z,10.01
2019-03-22T20:42:50.333Z,10.19
2019-03-22T20:45:24.069Z,10.27
2019-03-22T20:47:46.000Z,10.15
2019-03-22T20:50:12.917Z,10.17
2019-03-22T20:52:39.719Z,10.28
2019-03-22T20:55:07.338Z,10.26
2019-03-22T20:57:34.389Z,10.22
2019-03-22T21:00:02.086Z,10.30
2019-03-22T21:02:28.928Z,10.19
2019-03-22T21:04:56.269Z,10.18
2019-03-22T21:07:23.081Z,10.24
2019-03-22T21:09:50.014Z,10.13
2019-03-22T21:12:17.089Z,10.18
2019-03-22T21:14:43.909Z,10.15
2019-03-22T21:17:10.791Z,10.07
2019-03-22T21:19:37.604Z,10.00
2019-03-22T21:22:04.591Z,10.12
2019-03-22T21:24:31.347Z,10.05
2019-03-22T21:26:58.221Z,10.04
2019-03-22T21:29:25.029Z,9.79
2019-03-22T21:31:51.959Z,9.64
2019-03-22T21:34:19.241Z,9.78
2019-03-22T21:36:46.100Z,9.80
2019-03-22T21:39:12.892Z,9.72
2019-03-22T21:41:39.935Z,9.79
2019-03-22T21:44:06.741Z,9.81
2019-03-22T21:46:33.512Z,9.76
2019-03-22T21:49:00.337Z,9.79
2019-03-22T21:51:27.102Z,9.54
2019-03-22T21:53:53.850Z,9.48
2019-03-22T21:56:20.614Z,9.46
2019-03-22T21:58:47.580Z,8.98
2019-03-22T22:01:14.469Z,8.83
2019-03-22T22:03:41.278Z,8.63
2019-03-22T22:06:08.112Z,8.61
2019-03-22T22:08:34.990Z,8.62
2019-03-22T22:11:01.702Z,8.67
2019-03-22T22:13:28.425Z,8.33
2019-03-22T22:15:55.171Z,8.44
2019-03-22T22:18:22.051Z,8.49
2019-03-22T22:20:48.855Z,8.30
2019-03-22T22:23:15.734Z,8.21
2019-03-22T22:25:42.479Z,8.23
2019-03-22T22:28:09.225Z,8.21
2019-03-22T22:30:37.443Z,7.90
2019-03-22T22:33:04.355Z,7.86
2019-03-22T22:35:31.113Z,7.78
2019-03-22T22:37:57.825Z,7.84
2019-03-22T22:40:24.677Z,7.57
2019-03-22T22:42:51.511Z,7.42
2019-03-22T22:45:18.328Z,7.26
2019-03-22T22:47:45.094Z,7.32
2019-03-22T22:50:11.931Z,7.29
2019-03-22T22:52:38.823Z,7.17
2019-03-22T22:55:05.910Z,7.26
2019-03-22T22:57:32.764Z,7.16
2019-03-22T22:59:59.757Z,7.30
2019-03-22T23:02:26.571Z,7.26
2019-03-22T23:04:53.287Z,7.07
2019-03-22T23:07:20.288Z,7.11
2019-03-22T23:09:47.137Z,7.16
2019-03-22T23:12:14.020Z,7.09
2019-03-22T23:14:40.880Z,6.89
2019-03-22T23:17:07.724Z,6.71
2019-03-22T23:19:34.602Z,6.52
2019-03-22T23:22:02.746Z,6.58
2019-03-22T23:24:29.574Z,6.80
2019-03-22T23:26:56.728Z,6.50
2019-03-22T23:29:23.614Z,6.40
2019-03-22T23:31:50.461Z,6.14
2019-03-22T23:34:17.393Z,6.16
2019-03-22T23:36:44.292Z,6.11
2019-03-22T23:39:11.123Z,6.58
2019-03-22T23:41:37.978Z,7.04
2019-03-22T23:44:04.909Z,6.33
2019-03-22T23:46:31.809Z,6.77
2019-03-22T23:48:58.666Z,6.10
2019-03-22T23:51:25.573Z,6.11
2019-03-22T23:53:52.369Z,6.09
2019-03-22T23:56:19.294Z,6.29
2019-03-22T23:58:46.077Z,6.25
